Time;durP1;ratioP1;P1;durP2;ratioP2;P2;SDS_P1;SDS_P2;PMS_P1;PMS_P2;Temp;Humidity;BMP_temperature;BMP_pressure;BME280_temperature;BME280_humidity;BME280_pressure;Samples;Min_cycle;Max_cycle;Signal;HPM_P1;HPM_P2
2022/10/31 00:01:25;;;;;;;;;23.50;22.00;;;;;14.70;87.52;99745.34;5063832;28;45412;-77
2022/10/31 00:03:50;;;;;;;;;29.25;23.25;;;;;14.68;87.32;99734.81;5075962;27;45376;-77
2022/10/31 00:06:18;;;;;;;;;24.75;21.25;;;;;14.67;87.27;99738.38;5076470;27;46345;-77
2022/10/31 00:08:45;;;;;;;;;16.75;16.00;;;;;14.65;87.57;99732.28;5075877;27;45386;-77
2022/10/31 00:11:10;;;;;;;;;22.50;22.00;;;;;14.64;87.62;99735.88;5075145;28;45415;-77
2022/10/31 00:13:36;;;;;;;;;23.75;20.00;;;;;14.64;88.00;99738.53;5075976;27;45375;-77
2022/10/31 00:16:01;;;;;;;;;23.50;19.75;;;;;14.63;87.75;99727.06;5076109;27;45844;-77
2022/10/31 00:18:27;;;;;;;;;26.00;22.00;;;;;14.62;87.98;99733.28;5076141;28;45505;-77
2022/10/31 00:21:03;;;;;;;;;21.50;19.00;;;;;14.61;87.64;99731.56;5075980;27;45441;-77
2022/10/31 00:23:29;;;;;;;;;20.00;20.00;;;;;14.60;88.02;99736.94;5075845;27;45411;-77
2022/10/31 00:25:59;;;;;;;;;25.00;23.25;;;;;14.59;88.11;99732.56;5076030;28;46706;-77
2022/10/31 00:28:24;;;;;;;;;22.25;21.50;;;;;14.59;87.77;99737.88;5074190;28;45390;-77
2022/10/31 00:30:50;;;;;;;;;25.00;23.33;;;;;14.57;88.04;99732.66;5076019;28;45421;-77
2022/10/31 00:33:15;;;;;;;;;23.00;21.00;;;;;14.56;87.78;99728.28;5076160;27;45411;-77
2022/10/31 00:35:40;;;;;;;;;26.50;22.00;;;;;14.55;87.82;99734.53;5075941;28;46143;-77
2022/10/31 00:38:06;;;;;;;;;25.00;23.00;;;;;14.54;88.06;99723.97;5075914;27;45340;-77
2022/10/31 00:40:31;;;;;;;;;26.00;22.00;;;;;14.53;87.85;99722.25;5074645;28;45416;-78
2022/10/31 00:42:57;;;;;;;;;21.00;20.75;;;;;14.51;88.09;99722.31;5075467;27;45692;-77
2022/10/31 00:45:22;;;;;;;;;24.67;21.67;;;;;14.50;87.62;99725.91;5076026;27;45619;-77
2022/10/31 00:47:47;;;;;;;;;21.50;19.25;;;;;14.49;88.19;99720.66;5075630;28;45489;-77
2022/10/31 00:50:13;;;;;;;;;22.00;20.00;;;;;14.47;88.15;99720.75;5076088;28;45304;-77
2022/10/31 00:52:38;;;;;;;;;20.75;19.75;;;;;14.45;87.94;99719.94;5075689;27;45530;-77
2022/10/31 00:55:04;;;;;;;;;20.00;19.25;;;;;14.46;88.04;99723.47;5075547;27;45542;-77
2022/10/31 00:57:29;;;;;;;;;19.75;19.50;;;;;14.44;88.11;99722.66;5075250;28;45419;-77
2022/10/31 00:59:54;;;;;;;;;23.75;19.50;;;;;14.44;88.08;99720.00;5076019;27;45380;-78
2022/10/31 01:02:20;;;;;;;;;21.00;18.75;;;;;14.43;88.08;99715.63;5075141;27;45434;-77
2022/10/31 01:04:45;;;;;;;;;27.00;22.75;;;;;14.42;88.32;99719.22;5075015;27;45461;-77
2022/10/31 01:07:12;;;;;;;;;23.50;19.25;;;;;14.42;88.24;99713.91;5075302;27;45447;-76
2022/10/31 01:09:37;;;;;;;;;18.50;18.25;;;;;14.39;88.28;99725.53;5075622;27;45321;-77
2022/10/31 01:12:03;;;;;;;;;21.75;20.00;;;;;14.36;87.87;99728.31;5075314;27;45150;-77
2022/10/31 01:14:28;;;;;;;;;22.50;20.50;;;;;14.33;88.28;99720.50;5075094;27;45393;-77
2022/10/31 01:16:53;;;;;;;;;18.00;17.50;;;;;14.32;88.63;99722.28;5073603;28;45309;-77
2022/10/31 01:19:19;;;;;;;;;24.50;22.50;;;;;14.30;88.61;99724.13;5075570;27;45268;-77
2022/10/31 01:21:45;;;;;;;;;22.25;19.75;;;;;14.29;88.79;99722.41;5075178;27;45420;-77
2022/10/31 01:24:10;;;;;;;;;21.25;18.50;;;;;14.29;88.50;99721.56;5075148;27;46458;-77
2022/10/31 01:26:35;;;;;;;;;22.75;20.00;;;;;14.29;88.75;99716.25;5075118;27;45263;-77
2022/10/31 01:29:04;;;;;;;;;22.00;18.75;;;;;14.29;88.76;99709.16;5074948;27;45335;-77
2022/10/31 01:31:32;;;;;;;;;23.25;21.25;;;;;14.27;88.70;99708.34;5074959;28;45598;-77
2022/10/31 01:33:58;;;;;;;;;23.25;21.00;;;;;14.28;88.88;99714.53;5075111;27;45548;-77
2022/10/31 01:36:27;;;;;;;;;20.25;20.00;;;;;14.27;88.19;99703.06;5077336;27;45316;-77
2022/10/31 01:38:56;;;;;;;;;22.75;19.50;;;;;14.25;88.28;99707.56;5075480;27;45486;-77
2022/10/31 01:41:25;;;;;;;;;19.00;17.75;;;;;14.23;88.13;99704.16;5074642;28;45574;-77
2022/10/31 01:44:00;;;;;;;;;20.00;15.50;;;;;14.20;88.24;99706.06;5074463;27;45452;-77
2022/10/31 01:46:40;;;;;;;;;20.75;18.50;;;;;14.17;88.47;99709.72;5074528;27;45411;-77
2022/10/31 01:49:12;;;;;;;;;19.25;16.25;;;;;14.15;88.38;99703.63;5074862;28;45348;-77
2022/10/31 01:51:45;;;;;;;;;18.75;18.00;;;;;14.13;88.58;99700.16;5074876;27;45418;-76
2022/10/31 01:54:15;;;;;;;;;21.50;21.00;;;;;14.13;88.92;99694.00;5074728;27;46594;-76
2022/10/31 01:56:45;;;;;;;;;21.50;18.50;;;;;14.10;88.95;99694.13;5073263;28;45458;-77
2022/10/31 01:59:13;;;;;;;;;19.50;18.50;;;;;14.10;88.94;99696.78;5074746;28;45328;-77
2022/10/31 02:01:39;;;;;;;;;19.00;17.25;;;;;14.08;88.70;99693.34;5074998;28;45431;-77
2022/10/31 02:04:06;;;;;;;;;23.75;18.00;;;;;14.07;89.05;99691.66;5074598;28;45522;-77
2022/10/31 02:06:45;;;;;;;;;21.50;20.25;;;;;14.06;89.26;99685.50;5073014;28;45454;-77
2022/10/31 02:09:12;;;;;;;;;20.50;19.75;;;;;14.05;89.09;99683.78;5073058;28;45384;-77
2022/10/31 02:11:38;;;;;;;;;22.75;19.75;;;;;14.04;89.25;99679.41;5074548;28;45480;-77
2022/10/31 02:14:04;;;;;;;;;24.75;20.25;;;;;14.05;88.84;99681.13;5074641;27;45736;-77
2022/10/31 02:16:29;;;;;;;;;22.00;20.00;;;;;14.04;89.18;99674.09;5078028;27;45471;-77
2022/10/31 02:18:56;;;;;;;;;20.00;17.75;;;;;14.02;89.38;99681.25;5077720;27;45324;-77
2022/10/31 02:21:30;;;;;;;;;25.50;23.00;;;;;14.03;89.00;99682.09;5077734;27;45378;-77
2022/10/31 02:24:17;;;;;;;;;24.50;23.00;;;;;14.01;89.19;99681.31;5078128;27;45422;-77
2022/10/31 02:26:57;;;;;;;;;16.75;16.25;;;;;13.97;89.22;99681.44;5077585;27;45443;-77
2022/10/31 02:29:47;;;;;;;;;19.75;18.25;;;;;13.97;89.18;99676.16;5077681;27;45394;-76
2022/10/31 02:32:34;;;;;;;;;19.00;16.25;;;;;13.95;89.39;99671.84;5077852;27;45406;-76
2022/10/31 02:35:37;;;;;;;;;17.25;17.00;;;;;13.93;89.13;99671.03;5077509;27;45448;-76
2022/10/31 02:38:09;;;;;;;;;18.25;17.00;;;;;13.92;89.36;99679.91;5067100;27;45365;-77
2022/10/31 02:41:04;;;;;;;;;18.00;17.00;;;;;13.91;89.34;99676.41;5077690;27;45428;-76
2022/10/31 02:43:45;;;;;;;;;15.75;15.00;;;;;13.90;89.32;99671.22;5064094;28;45439;-76
2022/10/31 02:46:27;;;;;;;;;19.25;17.25;;;;;13.89;89.56;99662.41;5077082;28;45651;-76
2022/10/31 02:48:57;;;;;;;;;19.75;18.25;;;;;13.89;89.46;99661.53;5077411;27;45396;-77
2022/10/31 02:51:22;;;;;;;;;11.00;9.50;;;;;13.89;89.77;99661.53;5077707;28;45306;-76
2022/10/31 02:53:48;;;;;;;;;22.25;20.25;;;;;13.90;89.74;99673.84;5077030;27;45554;-76
2022/10/31 02:56:18;;;;;;;;;25.25;21.50;;;;;13.91;89.52;99672.91;5077018;27;45515;-76
2022/10/31 02:58:58;;;;;;;;;17.50;16.25;;;;;13.91;89.49;99667.59;5075549;28;45384;-77
2022/10/31 03:01:45;;;;;;;;;19.00;19.00;;;;;13.86;89.61;99662.53;5077783;28;45272;-77
2022/10/31 03:04:13;;;;;;;;;21.25;19.00;;;;;13.84;89.92;99659.06;5077222;27;45466;-77
2022/10/31 03:06:45;;;;;;;;;22.00;17.75;;;;;13.84;89.88;99666.16;5077518;27;45316;-76
2022/10/31 03:09:13;;;;;;;;;21.00;19.00;;;;;13.82;90.39;99660.94;5076736;27;45423;-76
2022/10/31 03:12:08;;;;;;;;;17.25;16.00;;;;;13.82;90.09;99660.06;5077347;27;45473;-76
2022/10/31 03:15:00;;;;;;;;;21.25;17.25;;;;;13.83;89.94;99662.66;5076734;28;45302;-76
2022/10/31 03:17:50;;;;;;;;;21.75;20.00;;;;;13.82;90.12;99668.03;5064788;28;46812;-77
2022/10/31 03:20:21;;;;;;;;;17.25;15.75;;;;;13.77;90.55;99670.88;5076888;27;45505;-77
2022/10/31 03:22:47;;;;;;;;;21.75;16.25;;;;;13.69;90.68;99673.00;5077303;27;45391;-77
2022/10/31 03:25:13;;;;;;;;;19.00;17.75;;;;;13.68;90.67;99665.13;5076563;28;45427;-77
2022/10/31 03:27:42;;;;;;;;;15.25;15.25;;;;;13.66;90.72;99673.13;5076052;28;45329;-77
2022/10/31 03:30:08;;;;;;;;;20.00;17.50;;;;;13.64;91.12;99677.63;5078689;27;45228;-77
2022/10/31 03:32:43;;;;;;;;;18.25;17.50;;;;;13.65;91.17;99670.56;5076771;27;45357;-77
2022/10/31 03:35:11;;;;;;;;;24.50;20.75;;;;;13.64;91.31;99667.03;5063779;28;45463;-76
2022/10/31 03:37:38;;;;;;;;;19.75;18.00;;;;;13.65;91.29;99673.22;5076561;28;45446;-77
2022/10/31 03:40:08;;;;;;;;;14.50;13.50;;;;;13.65;91.55;99679.38;5075461;28;46155;-76
2022/10/31 03:42:37;;;;;;;;;24.50;20.50;;;;;13.66;91.62;99674.94;5076503;27;45447;-77
2022/10/31 03:45:09;;;;;;;;;24.25;21.00;;;;;13.68;91.78;99670.44;5076444;28;45572;-77
2022/10/31 03:47:37;;;;;;;;;18.50;18.50;;;;;13.70;91.52;99671.22;5076203;27;46419;-76
2022/10/31 03:50:03;;;;;;;;;21.00;16.00;;;;;13.70;91.62;99669.44;5076139;27;45426;-76
2022/10/31 03:52:35;;;;;;;;;21.00;17.25;;;;;13.72;91.77;99667.59;5076451;27;45428;-77
2022/10/31 03:55:17;;;;;;;;;22.50;20.00;;;;;13.73;91.71;99658.72;5076690;27;45427;-77
2022/10/31 03:57:45;;;;;;;;;20.00;19.00;;;;;13.75;91.59;99663.91;5074346;28;45645;-77
2022/10/31 04:00:13;;;;;;;;;18.25;17.00;;;;;13.76;91.48;99670.94;5076147;27;45398;-77
2022/10/31 04:02:43;;;;;;;;;19.75;18.25;;;;;13.78;90.99;99663.78;5076046;27;45382;-76
2022/10/31 04:05:11;;;;;;;;;19.75;18.50;;;;;13.78;91.12;99669.06;5076031;27;45520;-76
2022/10/31 04:07:41;;;;;;;;;17.00;17.00;;;;;13.77;90.91;99670.88;5091756;27;46975;-76
2022/10/31 04:10:11;;;;;;;;;18.50;18.50;;;;;13.77;90.87;99659.41;5076083;27;45344;-76
2022/10/31 04:12:39;;;;;;;;;19.00;17.50;;;;;13.76;91.03;99665.63;5075920;27;45510;-77
2022/10/31 04:15:07;;;;;;;;;20.50;18.75;;;;;13.73;91.06;99663.16;5076071;27;45400;-76
2022/10/31 04:17:39;;;;;;;;;18.75;17.25;;;;;13.74;91.03;99659.56;5076197;27;46246;-76
2022/10/31 04:20:06;;;;;;;;;20.67;17.67;;;;;13.74;91.15;99654.28;5074506;28;45403;-76
2022/10/31 04:22:31;;;;;;;;;22.33;22.00;;;;;13.73;90.88;99650.75;5076369;27;45312;-77
2022/10/31 04:24:56;;;;;;;;;15.00;14.00;;;;;13.74;91.05;99655.09;5074575;28;45533;-76
2022/10/31 04:27:22;;;;;;;;;19.25;17.25;;;;;13.74;90.91;99662.22;5075419;27;45520;-76
2022/10/31 04:29:47;;;;;;;;;21.50;20.00;;;;;13.75;91.17;99648.00;5075746;27;45399;-77
2022/10/31 04:32:13;;;;;;;;;21.33;19.00;;;;;13.74;91.18;99649.78;5076017;27;45433;-76
2022/10/31 04:34:38;;;;;;;;;16.75;15.75;;;;;13.73;90.98;99636.66;5075515;27;45447;-76
2022/10/31 04:37:03;;;;;;;;;18.67;17.67;;;;;13.72;90.99;99635.78;5075268;27;45463;-76
2022/10/31 04:39:29;;;;;;;;;18.50;16.25;;;;;13.72;91.16;99640.22;5074129;28;45331;-76
2022/10/31 04:41:54;;;;;;;;;17.75;16.75;;;;;13.73;91.24;99641.94;5075705;27;45823;-76
2022/10/31 04:44:20;;;;;;;;;23.00;18.75;;;;;13.72;90.89;99643.72;5075416;27;45298;-76
2022/10/31 04:46:45;;;;;;;;;21.00;20.00;;;;;13.72;91.00;99648.16;5070839;28;47456;-76
2022/10/31 04:49:11;;;;;;;;;21.50;20.25;;;;;13.72;90.99;99650.81;5070236;28;45250;-76
2022/10/31 04:51:36;;;;;;;;;25.33;21.33;;;;;13.68;91.36;99655.38;5075613;28;45456;-76
2022/10/31 04:54:01;;;;;;;;;20.75;18.50;;;;;13.63;91.55;99652.94;5075432;27;45492;-77
2022/10/31 04:56:27;;;;;;;;;22.00;20.25;;;;;13.58;92.15;99659.34;5075446;28;46451;-76
2022/10/31 04:58:52;;;;;;;;;24.25;19.00;;;;;13.52;92.47;99657.00;5075211;27;45360;-76
2022/10/31 05:01:17;;;;;;;;;21.50;17.50;;;;;13.45;93.37;99652.88;5075831;27;45497;-76
2022/10/31 05:03:43;;;;;;;;;20.00;19.00;;;;;13.37;93.30;99647.91;5075323;27;45389;-76
2022/10/31 05:06:08;;;;;;;;;21.00;20.00;;;;;13.34;92.74;99648.03;5075311;27;45386;-76
2022/10/31 05:08:34;;;;;;;;;19.00;19.00;;;;;13.31;93.10;99650.81;5074987;27;45357;-77
2022/10/31 05:11:01;;;;;;;;;21.67;20.00;;;;;13.28;93.27;99640.34;5075585;27;45406;-76
2022/10/31 05:13:27;;;;;;;;;20.00;18.25;;;;;13.28;93.53;99638.56;5074764;27;45439;-76
2022/10/31 05:15:52;;;;;;;;;23.25;21.50;;;;;13.30;93.65;99651.75;5075283;27;46175;-77
2022/10/31 05:18:18;;;;;;;;;20.25;16.00;;;;;13.31;93.45;99648.16;5075311;27;45339;-76
2022/10/31 05:20:43;;;;;;;;;20.75;18.00;;;;;13.33;93.49;99656.06;5075140;27;45662;-76
2022/10/31 05:23:08;;;;;;;;;19.25;17.50;;;;;13.33;93.67;99651.63;5074737;27;45616;-76
2022/10/31 05:25:34;;;;;;;;;20.75;17.50;;;;;13.35;93.40;99660.38;5074971;27;45652;-76
2022/10/31 05:27:59;;;;;;;;;21.50;19.25;;;;;13.36;93.34;99661.22;5073020;28;45431;-76
2022/10/31 05:30:27;;;;;;;;;18.75;17.75;;;;;13.38;93.29;99651.44;5075136;27;45863;-77
2022/10/31 05:32:53;;;;;;;;;18.00;17.00;;;;;13.38;93.49;99652.28;5073301;28;45485;-77
2022/10/31 05:35:23;;;;;;;;;18.00;17.00;;;;;13.39;93.05;99654.03;5074733;27;46424;-76
2022/10/31 05:37:48;;;;;;;;;15.50;12.25;;;;;13.39;93.13;99659.31;5074715;27;45635;-76
2022/10/31 05:40:16;;;;;;;;;18.25;17.00;;;;;13.40;92.70;99670.78;5075261;27;45466;-76
2022/10/31 05:42:43;;;;;;;;;19.67;19.33;;;;;13.39;92.70;99675.22;5074287;27;45429;-77
2022/10/31 05:45:14;;;;;;;;;20.25;19.00;;;;;13.38;92.86;99672.63;5074857;27;45508;-76
2022/10/31 05:47:40;;;;;;;;;20.00;20.00;;;;;13.36;92.88;99655.94;5074647;28;45502;-76
2022/10/31 05:50:06;;;;;;;;;21.33;19.00;;;;;13.33;92.80;99654.28;5077175;27;45396;-76
2022/10/31 05:52:32;;;;;;;;;22.00;17.75;;;;;13.32;92.67;99652.53;5078053;27;45313;-76
2022/10/31 05:54:57;;;;;;;;;19.50;19.00;;;;;13.30;92.79;99654.41;5078360;27;45537;-76
2022/10/31 05:57:23;;;;;;;;;21.25;17.75;;;;;13.30;92.77;99656.19;5077828;27;45494;-76
2022/10/31 05:59:51;;;;;;;;;22.33;21.00;;;;;13.28;93.06;99653.59;5078380;27;45371;-75
2022/10/31 06:02:16;;;;;;;;;19.00;18.00;;;;;13.26;92.90;99658.09;5078137;28;45501;-78
2022/10/31 06:04:41;;;;;;;;;21.25;19.25;;;;;13.26;93.02;99663.38;5077942;28;45382;-78
2022/10/31 06:07:07;;;;;;;;;19.25;19.25;;;;;13.25;93.18;99659.88;5076556;28;45348;-78
2022/10/31 06:09:32;;;;;;;;;22.00;20.00;;;;;13.26;93.21;99663.38;5078227;28;45354;-78
2022/10/31 06:11:57;;;;;;;;;19.50;17.75;;;;;13.26;93.10;99660.75;5077804;27;45534;-78
2022/10/31 06:14:23;;;;;;;;;20.75;17.75;;;;;13.25;92.83;99664.31;5077958;27;46314;-77
2022/10/31 06:16:48;;;;;;;;;16.75;13.25;;;;;13.23;93.00;99663.53;5077853;27;45300;-77
2022/10/31 06:19:13;;;;;;;;;23.33;19.00;;;;;13.22;92.91;99661.81;5078257;27;45577;-77
2022/10/31 06:21:39;;;;;;;;;14.75;13.00;;;;;13.21;93.16;99660.97;5077633;27;45422;-78
2022/10/31 06:24:04;;;;;;;;;21.67;20.00;;;;;13.22;92.99;99669.75;5077719;27;45443;-77
2022/10/31 06:26:30;;;;;;;;;22.75;19.25;;;;;13.20;93.04;99667.19;5077941;27;45501;-77
2022/10/31 06:28:55;;;;;;;;;22.67;21.00;;;;;13.19;93.20;99662.81;5077384;27;45353;-77
2022/10/31 06:31:20;;;;;;;;;18.33;15.67;;;;;13.18;93.33;99676.09;5076857;28;45478;-77
2022/10/31 06:33:46;;;;;;;;;23.00;19.33;;;;;13.19;93.04;99680.47;5077311;27;46518;-78
2022/10/31 06:36:11;;;;;;;;;17.33;17.00;;;;;13.18;92.93;99684.03;5077014;27;45454;-78
2022/10/31 06:38:37;;;;;;;;;23.00;18.33;;;;;13.17;93.40;99677.03;5078025;27;45354;-78
2022/10/31 06:41:04;;;;;;;;;21.67;19.67;;;;;13.18;93.12;99676.97;5076135;28;45537;-78
2022/10/31 06:43:30;;;;;;;;;21.67;17.67;;;;;13.18;92.88;99679.63;5092348;27;45698;-78
2022/10/31 06:45:55;;;;;;;;;24.33;22.00;;;;;13.19;93.03;99667.25;5077442;27;45359;-78
2022/10/31 06:48:21;;;;;;;;;17.33;16.67;;;;;13.21;92.77;99665.38;5077543;27;45454;-78
2022/10/31 06:50:46;;;;;;;;;23.33;20.67;;;;;13.20;92.53;99666.31;5077439;27;45371;-77
2022/10/31 06:53:12;;;;;;;;;23.00;23.00;;;;;13.19;92.46;99667.25;5075869;28;47184;-77
2022/10/31 06:55:38;;;;;;;;;23.75;23.75;;;;;13.18;92.43;99674.31;5076855;27;45259;-78
2022/10/31 06:58:03;;;;;;;;;20.67;20.67;;;;;13.16;92.70;99670.88;5077015;28;45535;-78
2022/10/31 07:00:30;;;;;;;;;26.67;24.00;;;;;13.16;92.63;99662.94;5076800;27;45371;-78
2022/10/31 07:02:57;;;;;;;;;22.00;20.00;;;;;13.16;92.49;99670.00;5076606;27;45426;-78
2022/10/31 07:05:24;;;;;;;;;19.00;18.75;;;;;13.16;92.56;99656.78;5076338;27;45411;-78
2022/10/31 07:07:54;;;;;;;;;18.25;16.00;;;;;13.15;92.45;99644.47;5077098;27;45325;-78
2022/10/31 07:10:19;;;;;;;;;22.67;19.67;;;;;13.17;92.06;99647.91;5076663;27;45561;-77
2022/10/31 07:12:44;;;;;;;;;24.50;18.75;;;;;13.19;92.55;99641.63;5076535;27;45850;-77
2022/10/31 07:15:10;;;;;;;;;20.00;17.50;;;;;13.22;92.54;99645.94;5064319;27;45505;-78
2022/10/31 07:17:35;;;;;;;;;23.75;21.50;;;;;13.22;92.38;99641.50;5068327;28;45525;-77
2022/10/31 07:20:00;;;;;;;;;20.25;18.00;;;;;13.26;92.54;99640.41;5075701;27;45488;-77
2022/10/31 07:22:33;;;;;;;;;15.00;14.25;;;;;13.30;92.36;99643.81;5076684;27;45368;-77
2022/10/31 07:24:58;;;;;;;;;18.50;15.75;;;;;13.33;92.34;99633.09;5076237;27;45327;-78
2022/10/31 07:27:23;;;;;;;;;23.00;18.50;;;;;13.37;92.21;99636.47;5074324;27;45555;-77
2022/10/31 07:29:49;;;;;;;;;20.00;19.00;;;;;13.40;92.04;99637.19;5073677;27;45500;-77
2022/10/31 07:32:14;;;;;;;;;26.25;22.00;;;;;13.46;91.99;99642.22;5065374;28;46128;-78
2022/10/31 07:34:39;;;;;;;;;19.75;14.75;;;;;13.51;91.73;99642.88;5074317;28;45718;-78
2022/10/31 07:37:05;;;;;;;;;20.00;20.00;;;;;13.56;91.39;99640.91;5075935;27;45426;-77
2022/10/31 07:39:30;;;;;;;;;15.75;14.50;;;;;13.62;91.44;99637.09;5074423;28;45534;-78
2022/10/31 07:41:58;;;;;;;;;20.75;18.00;;;;;13.68;90.84;99642.13;5076389;27;46442;-78
2022/10/31 07:44:23;;;;;;;;;19.75;19.00;;;;;13.76;90.73;99649.72;5075441;27;45405;-78
2022/10/31 07:46:49;;;;;;;;;21.25;18.25;;;;;13.82;90.71;99652.97;5065988;27;45356;-78
2022/10/31 07:49:14;;;;;;;;;20.33;19.00;;;;;13.88;89.79;99649.22;5074316;27;45451;-78
2022/10/31 07:51:39;;;;;;;;;20.50;20.00;;;;;13.94;89.95;99646.25;5075289;27;46244;-78
2022/10/31 07:54:05;;;;;;;;;22.25;20.25;;;;;14.00;90.13;99651.28;5075621;27;45443;-78
2022/10/31 07:56:30;;;;;;;;;20.50;19.00;;;;;14.06;89.76;99650.16;5075407;27;45369;-78
2022/10/31 07:58:55;;;;;;;;;20.50;18.50;;;;;14.15;89.26;99644.44;5074830;27;45482;-79
2022/10/31 08:01:21;;;;;;;;;22.75;21.50;;;;;14.21;89.13;99639.72;5069799;27;45428;-77
2022/10/31 08:03:46;;;;;;;;;18.50;16.25;;;;;14.28;88.98;99645.56;5075313;27;45579;-77
2022/10/31 08:06:12;;;;;;;;;23.50;19.50;;;;;14.36;88.38;99637.25;5075677;27;45976;-78
2022/10/31 08:08:37;;;;;;;;;21.25;20.00;;;;;14.40;88.52;99631.78;5075397;27;45249;-78
2022/10/31 08:11:03;;;;;;;;;25.00;22.00;;;;;14.47;88.53;99633.19;5074043;28;47132;-77
2022/10/31 08:13:28;;;;;;;;;23.50;22.00;;;;;14.56;88.06;99638.06;5074413;28;45513;-77
2022/10/31 08:15:54;;;;;;;;;19.00;18.00;;;;;14.67;87.81;99642.84;5073401;27;45384;-68
2022/10/31 08:18:21;;;;;;;;;22.00;20.00;;;;;14.76;87.65;99633.56;5072620;28;45480;-68
2022/10/31 08:20:47;;;;;;;;;24.75;20.50;;;;;14.85;87.22;99634.00;5081549;27;47395;-68
2022/10/31 08:23:13;;;;;;;;;22.50;20.75;;;;;14.93;87.25;99633.59;5064764;27;45520;-68
2022/10/31 08:25:39;;;;;;;;;21.00;19.25;;;;;14.99;86.88;99631.50;5075523;27;45399;-68
2022/10/31 08:28:06;;;;;;;;;24.25;19.75;;;;;15.08;86.42;99632.00;5074598;27;45348;-68
2022/10/31 08:30:33;;;;;;;;;27.25;22.25;;;;;15.12;86.06;99628.22;5066576;27;45687;-68
2022/10/31 08:33:03;;;;;;;;;23.50;22.50;;;;;15.15;86.06;99620.13;5069178;28;45616;-67
2022/10/31 08:35:28;;;;;;;;;19.75;19.75;;;;;15.16;85.82;99620.03;5085573;27;45477;-68
2022/10/31 08:37:55;;;;;;;;;11.75;10.25;;;;;15.18;85.51;99618.16;5073876;28;45498;-68
2022/10/31 08:40:21;;;;;;;;;21.75;20.25;;;;;15.22;85.32;99614.44;5074137;27;45434;-68
2022/10/31 08:42:46;;;;;;;;;22.75;19.25;;;;;15.27;85.27;99620.34;5074591;27;45310;-68
2022/10/31 08:45:12;;;;;;;;;20.50;19.50;;;;;15.31;84.96;99616.59;5069895;27;45387;-68
2022/10/31 08:47:37;;;;;;;;;19.75;18.50;;;;;15.33;84.78;99613.84;5069544;28;45299;-68
2022/10/31 08:50:03;;;;;;;;;20.00;18.25;;;;;15.31;84.72;99610.41;5073415;28;46984;-68
2022/10/31 08:52:28;;;;;;;;;22.25;21.50;;;;;15.27;84.50;99616.81;5074485;27;45442;-68
2022/10/31 08:54:54;;;;;;;;;22.00;16.00;;;;;15.20;84.52;99607.47;5074961;27;45291;-68
2022/10/31 08:57:19;;;;;;;;;20.50;18.00;;;;;15.20;84.82;99612.78;5074461;27;45461;-68
2022/10/31 08:59:44;;;;;;;;;23.50;21.25;;;;;15.21;85.15;99620.69;5074050;27;45427;-68
2022/10/31 09:02:10;;;;;;;;;22.00;18.75;;;;;15.22;84.81;99617.09;5068040;28;45548;-68
2022/10/31 09:04:35;;;;;;;;;25.50;21.25;;;;;15.25;84.28;99616.03;5074397;27;45527;-68
2022/10/31 09:07:00;;;;;;;;;23.75;20.25;;;;;15.26;84.08;99613.31;5073888;27;45360;-68
2022/10/31 09:09:26;;;;;;;;;18.50;16.50;;;;;15.30;83.81;99612.22;5074467;27;45410;-68
2022/10/31 09:11:51;;;;;;;;;21.75;17.75;;;;;15.32;82.63;99610.34;5074537;27;45477;-69
2022/10/31 09:14:16;;;;;;;;;20.00;19.50;;;;;15.31;83.05;99598.00;5074165;27;45515;-68
2022/10/31 09:16:42;;;;;;;;;20.25;19.50;;;;;15.31;83.12;99589.16;5071685;27;45496;-68
2022/10/31 09:19:07;;;;;;;;;21.75;19.75;;;;;15.32;83.27;99591.75;5074569;27;45445;-67
2022/10/31 09:21:32;;;;;;;;;18.75;16.25;;;;;15.36;83.34;99589.81;5073154;28;45482;-68
2022/10/31 09:23:58;;;;;;;;;22.00;18.50;;;;;15.44;83.36;99584.06;5073202;28;45353;-68
2022/10/31 09:26:23;;;;;;;;;20.75;17.25;;;;;15.52;82.61;99598.69;5074174;27;45396;-67
2022/10/31 09:28:49;;;;;;;;;20.25;17.00;;;;;15.59;82.65;99601.88;5073935;27;45775;-67
2022/10/31 09:31:14;;;;;;;;;20.50;17.75;;;;;15.68;82.56;99604.09;5067816;27;45420;-66
2022/10/31 09:33:40;;;;;;;;;23.25;19.50;;;;;15.77;82.80;99587.63;5074400;27;45416;-67
2022/10/31 09:36:05;;;;;;;;;25.25;20.75;;;;;15.84;82.31;99602.31;5074314;27;45530;-67
2022/10/31 09:38:30;;;;;;;;;21.50;18.75;;;;;15.90;81.58;99593.16;5073785;27;46402;-67
2022/10/31 09:41:23;;;;;;;;;20.50;18.00;;;;;15.97;81.51;99586.53;5073732;27;45356;-67
2022/10/31 09:44:01;;;;;;;;;16.25;15.50;;;;;16.06;81.87;99591.38;5073658;27;45455;-67
2022/10/31 09:46:37;;;;;;;;;25.75;21.25;;;;;16.15;81.67;99585.53;5064316;27;45306;-67
2022/10/31 09:49:14;;;;;;;;;20.00;16.25;;;;;16.23;80.77;99583.31;5071749;27;45606;-67
2022/10/31 09:51:46;;;;;;;;;21.00;19.00;;;;;16.33;80.33;99591.63;5074167;27;45510;-67
2022/10/31 09:54:16;;;;;;;;;13.00;12.25;;;;;16.42;79.86;99586.63;5074375;28;45296;-68
2022/10/31 09:56:43;;;;;;;;;19.50;17.75;;;;;16.51;80.29;99576.44;5073942;28;45429;-67
2022/10/31 09:59:30;;;;;;;;;16.25;15.50;;;;;16.59;79.93;99576.88;5072778;27;45500;-68
2022/10/31 10:02:19;;;;;;;;;18.75;15.50;;;;;16.69;79.72;99586.06;5067670;28;45371;-67
2022/10/31 10:04:58;;;;;;;;;23.00;15.00;;;;;16.81;79.07;99568.50;5073552;28;45651;-67
2022/10/31 10:07:32;;;;;;;;;17.75;15.25;;;;;16.88;78.91;99573.41;5073379;27;45498;-67
2022/10/31 10:10:13;;;;;;;;;19.50;18.25;;;;;16.97;78.79;99572.00;5073397;27;46115;-67
2022/10/31 10:13:09;;;;;;;;;18.25;17.75;;;;;17.08;78.16;99573.09;5071235;27;45483;-68
2022/10/31 10:15:40;;;;;;;;;16.50;15.25;;;;;17.18;78.06;99580.53;5067850;28;45452;-67
2022/10/31 10:18:27;;;;;;;;;22.75;20.50;;;;;17.30;77.68;99574.44;5073302;27;45464;-68
2022/10/31 10:21:04;;;;;;;;;17.50;16.25;;;;;17.38;77.86;99567.72;5071809;28;45821;-68
2022/10/31 10:24:10;;;;;;;;;19.00;17.50;;;;;17.50;77.49;99562.56;5073474;27;45290;-68
2022/10/31 10:26:47;;;;;;;;;21.75;20.50;;;;;17.57;77.07;99561.25;5042506;28;46675;-67
2022/10/31 10:29:36;;;;;;;;;20.75;20.25;;;;;17.62;75.91;99557.34;5072978;27;45502;-67
2022/10/31 10:32:10;;;;;;;;;17.50;17.00;;;;;17.70;76.41;99543.56;5059671;28;46617;-67
2022/10/31 10:34:49;;;;;;;;;23.50;17.50;;;;;17.76;75.79;99548.53;5073270;27;45369;-67
2022/10/31 10:40:02;;;;;;;;;17.00;14.25;;;;;17.91;73.96;99541.38;5075933;22;45403;-71
2022/10/31 10:48:08;;;;;;;;;13.50;11.50;;;;;18.14;72.27;99543.41;5023163;28;45401;-69
2022/10/31 10:50:41;;;;;;;;;14.25;10.50;;;;;18.21;71.57;99544.75;5036231;28;45313;-69
2022/10/31 10:53:09;;;;;;;;;15.25;12.50;;;;;18.27;72.76;99538.13;5034640;28;46279;-70
2022/10/31 10:55:45;;;;;;;;;15.50;13.00;;;;;18.31;71.26;99536.97;5035915;28;45380;-69
2022/10/31 10:58:11;;;;;;;;;10.50;9.75;;;;;18.36;71.07;99535.75;5027925;28;45388;-70
2022/10/31 11:00:46;;;;;;;;;11.25;11.25;;;;;18.42;71.03;99539.84;5028535;28;45503;-70
2022/10/31 11:03:12;;;;;;;;;12.75;12.00;;;;;18.47;70.55;99529.69;5032665;28;45421;-70
2022/10/31 11:06:01;;;;;;;;;11.20;9.80;;;;;18.55;70.31;99532.72;5025226;28;45255;-70
2022/10/31 11:08:29;;;;;;;;;10.75;10.00;;;;;18.61;70.45;99531.47;5036328;28;45413;-70
2022/10/31 11:11:02;;;;;;;;;11.75;11.00;;;;;18.67;70.77;99520.38;5027469;28;45524;-70
2022/10/31 11:13:29;;;;;;;;;11.25;11.25;;;;;18.68;70.02;99520.28;5030191;28;46110;-70
2022/10/31 11:16:03;;;;;;;;;17.80;13.00;;;;;18.71;69.96;99516.56;5033947;28;45486;-69
2022/10/31 11:18:36;;;;;;;;;13.75;13.50;;;;;18.74;69.92;99505.69;5036318;28;45363;-70
2022/10/31 11:21:04;;;;;;;;;11.75;11.00;;;;;18.79;69.48;99517.75;5038142;28;45300;-70
2022/10/31 11:23:30;;;;;;;;;13.00;12.00;;;;;18.82;68.81;99506.84;5038082;28;46631;-70
2022/10/31 11:25:55;;;;;;;;;11.40;11.40;;;;;18.86;68.15;99502.16;5046701;28;45411;-70
2022/10/31 11:28:21;;;;;;;;;16.00;12.00;;;;;18.87;67.84;99495.00;5039997;28;45355;-69
2022/10/31 11:30:58;;;;;;;;;14.75;13.75;;;;;18.87;68.11;99487.84;5042700;28;45533;-70
2022/10/31 11:33:30;;;;;;;;;8.60;8.00;;;;;18.87;67.67;99479.84;5037242;28;48096;-70